createdAt,value
2022-11-04T00:01:28.919Z,15.34
2022-11-04T00:03:56.561Z,15.32
2022-11-04T00:06:25.779Z,15.28
2022-11-04T00:08:53.668Z,15.27
2022-11-04T00:11:39.188Z,15.03
2022-11-04T00:14:07.383Z,15.23
2022-11-04T00:16:52.516Z,15.18
2022-11-04T00:19:20.372Z,15.12
2022-11-04T00:22:08.144Z,15.09
2022-11-04T00:24:53.608Z,15.03
2022-11-04T00:27:39.716Z,14.89
2022-11-04T00:30:09.503Z,14.83
2022-11-04T00:32:54.768Z,14.77
2022-11-04T00:35:22.589Z,14.76
2022-11-04T00:37:51.797Z,14.72
2022-11-04T00:40:19.742Z,14.48
2022-11-04T00:42:47.536Z,14.72
2022-11-04T00:45:15.277Z,14.76
2022-11-04T00:47:42.976Z,14.76
2022-11-04T00:50:10.986Z,14.74
2022-11-04T00:52:38.656Z,14.75
2022-11-04T00:55:08.979Z,14.83
2022-11-04T00:57:36.640Z,14.85
2022-11-04T01:00:05.137Z,14.81
2022-11-04T01:02:32.877Z,14.92
2022-11-04T01:05:00.692Z,14.99
2022-11-04T01:07:28.324Z,15.04
2022-11-04T01:09:56.196Z,15.07
2022-11-04T01:12:25.380Z,15.09
2022-11-04T01:14:53.032Z,15.14
2022-11-04T01:17:20.802Z,15.19
2022-11-04T01:19:48.417Z,15.19
2022-11-04T01:22:16.185Z,15.20
2022-11-04T01:24:43.797Z,15.17
2022-11-04T01:27:11.486Z,15.15
2022-11-04T01:29:40.557Z,15.16
2022-11-04T01:32:08.514Z,15.18
2022-11-04T01:34:42.243Z,14.99
2022-11-04T01:37:11.414Z,15.16
2022-11-04T01:39:39.053Z,15.14
2022-11-04T01:42:06.791Z,15.13
2022-11-04T01:45:02.972Z,15.13
2022-11-04T01:47:33.579Z,15.08
2022-11-04T01:50:09.388Z,15.09
2022-11-04T01:52:38.578Z,15.12
2022-11-04T01:55:09.330Z,15.12
2022-11-04T01:57:43.387Z,15.14
2022-11-04T02:00:40.781Z,15.16
2022-11-04T02:03:10.065Z,15.19
2022-11-04T02:05:38.058Z,15.16
2022-11-04T02:08:33.319Z,15.18
2022-11-04T02:11:01.712Z,15.12
2022-11-04T02:13:28.575Z,15.08
2022-11-04T02:16:00.207Z,15.03
2022-11-04T02:18:37.786Z,15.05
2022-11-04T02:21:41.784Z,15.07
2022-11-04T02:24:41.319Z,15.05
2022-11-04T02:27:17.793Z,14.99
2022-11-04T02:29:52.099Z,14.97
2022-11-04T02:32:21.073Z,14.95
2022-11-04T02:34:54.091Z,14.96
2022-11-04T02:37:26.545Z,14.93
2022-11-04T02:39:56.319Z,14.94
2022-11-04T02:42:27.635Z,14.96
2022-11-04T02:45:01.182Z,14.99
2022-11-04T02:47:29.863Z,14.99
2022-11-04T02:49:59.438Z,14.93
2022-11-04T02:52:28.630Z,14.91
2022-11-04T02:54:59.516Z,14.86
2022-11-04T02:57:28.484Z,14.80
2022-11-04T02:59:58.169Z,14.74
2022-11-04T03:02:28.307Z,14.64
2022-11-04T03:04:55.989Z,14.63
2022-11-04T03:07:25.132Z,14.53
2022-11-04T03:09:54.596Z,14.48
2022-11-04T03:12:24.401Z,14.34
2022-11-04T03:14:53.422Z,14.34
2022-11-04T03:17:23.829Z,14.00
2022-11-04T03:19:54.454Z,14.20
2022-11-04T03:22:23.109Z,14.12
2022-11-04T03:24:51.370Z,14.13
2022-11-04T03:27:23.318Z,14.01
2022-11-04T03:29:54.653Z,14.03
2022-11-04T03:32:25.362Z,13.98
2022-11-04T03:34:54.409Z,13.94
2022-11-04T03:37:22.067Z,13.92
2022-11-04T03:39:49.764Z,13.87
2022-11-04T03:42:23.178Z,13.83
2022-11-04T03:44:51.680Z,13.71
2022-11-04T03:47:20.732Z,13.79
2022-11-04T03:49:50.114Z,13.54
2022-11-04T03:52:17.755Z,13.74
2022-11-04T03:54:45.457Z,13.72
2022-11-04T03:57:23.213Z,13.69
2022-11-04T04:00:11.457Z,13.68
2022-11-04T04:02:44.105Z,13.34
2022-11-04T04:05:17.779Z,13.25
2022-11-04T04:07:49.604Z,13.57
2022-11-04T04:10:35.856Z,13.59
2022-11-04T04:13:37.666Z,13.56
2022-11-04T04:16:08.256Z,13.50
2022-11-04T04:18:37.747Z,13.39
2022-11-04T04:21:09.146Z,13.45
2022-11-04T04:23:54.070Z,13.57
2022-11-04T04:26:39.574Z,13.56
2022-11-04T04:29:07.220Z,13.55
2022-11-04T04:31:50.410Z,13.54
2022-11-04T04:34:18.745Z,13.50
2022-11-04T04:36:50.199Z,13.50
2022-11-04T04:39:38.023Z,13.47
2022-11-04T04:42:23.738Z,13.45
2022-11-04T04:45:06.684Z,13.43
2022-11-04T04:47:44.797Z,13.41
2022-11-04T04:50:14.015Z,13.43
2022-11-04T04:52:45.633Z,13.43
2022-11-04T04:55:13.562Z,13.47
2022-11-04T04:57:41.429Z,13.50
2022-11-04T05:00:10.780Z,13.47
2022-11-04T05:02:38.718Z,13.58
2022-11-04T05:05:07.413Z,13.65
2022-11-04T05:07:35.091Z,13.71
2022-11-04T05:10:04.331Z,13.75
2022-11-04T05:12:52.186Z,13.81
2022-11-04T05:15:19.938Z,13.82
2022-11-04T05:17:47.639Z,13.82
2022-11-04T05:20:15.510Z,13.78
2022-11-04T05:22:43.189Z,13.75
2022-11-04T05:25:12.379Z,13.71
2022-11-04T05:27:40.124Z,13.65
2022-11-04T05:30:09.808Z,13.61
2022-11-04T05:32:37.491Z,13.53
2022-11-04T05:35:05.761Z,13.47
2022-11-04T05:37:33.458Z,13.07
2022-11-04T05:40:01.147Z,13.41
2022-11-04T05:42:30.603Z,13.34
2022-11-04T05:44:58.429Z,13.37
2022-11-04T05:47:26.320Z,11.21
2022-11-04T05:49:54.139Z,11.55
2022-11-04T05:52:21.874Z,13.11
2022-11-04T05:54:52.492Z,11.04
2022-11-04T05:57:20.945Z,13.43
2022-11-04T05:59:50.198Z,13.47
2022-11-04T06:02:18.122Z,12.95
2022-11-04T06:04:45.955Z,12.31
2022-11-04T06:07:13.799Z,13.53
2022-11-04T06:09:41.682Z,11.43
2022-11-04T06:12:09.914Z,12.12
2022-11-04T06:14:37.797Z,13.63
2022-11-04T06:17:06.880Z,13.64
2022-11-04T06:19:34.727Z,13.67
2022-11-04T06:22:03.891Z,13.61
2022-11-04T06:24:31.689Z,13.72
2022-11-04T06:27:00.740Z,13.70
2022-11-04T06:29:30.333Z,13.70
2022-11-04T06:31:58.300Z,13.79
2022-11-04T06:34:27.827Z,13.80
2022-11-04T06:36:55.508Z,13.86
2022-11-04T06:39:23.237Z,13.89
2022-11-04T06:41:51.818Z,13.94
2022-11-04T06:44:20.354Z,13.70
2022-11-04T06:46:47.996Z,13.96
2022-11-04T06:49:17.570Z,13.94
2022-11-04T06:51:46.677Z,13.97
2022-11-04T06:54:14.895Z,13.79
2022-11-04T06:56:42.547Z,14.08
2022-11-04T06:59:10.843Z,14.04
2022-11-04T07:01:38.752Z,14.15
2022-11-04T07:04:15.544Z,14.21
2022-11-04T07:06:44.316Z,14.24
2022-11-04T07:09:14.554Z,14.22
2022-11-04T07:11:42.398Z,14.08
2022-11-04T07:14:10.186Z,14.32
2022-11-04T07:16:38.020Z,14.34
2022-11-04T07:19:05.942Z,14.39
2022-11-04T07:21:35.141Z,14.46
2022-11-04T07:24:03.060Z,14.47
2022-11-04T07:26:32.077Z,14.39
2022-11-04T07:29:01.103Z,14.35
2022-11-04T07:31:28.900Z,14.35
2022-11-04T07:33:57.736Z,14.30
2022-11-04T07:36:25.444Z,14.21
2022-11-04T07:38:53.818Z,14.28
2022-11-04T07:41:21.526Z,14.28
2022-11-04T07:43:51.506Z,14.25
2022-11-04T07:46:19.325Z,14.23
2022-11-04T07:48:47.195Z,14.19
2022-11-04T07:51:16.570Z,14.21
2022-11-04T07:53:44.400Z,14.09
2022-11-04T07:56:12.608Z,14.20
2022-11-04T07:58:40.492Z,14.18
2022-11-04T08:01:10.762Z,14.23
2022-11-04T08:03:38.650Z,14.37
2022-11-04T08:06:07.597Z,14.33
2022-11-04T08:08:35.481Z,14.40
2022-11-04T08:11:04.303Z,14.45
2022-11-04T08:13:32.592Z,14.36
2022-11-04T08:16:02.650Z,14.51
2022-11-04T08:18:31.891Z,14.75
2022-11-04T08:20:59.683Z,14.95
2022-11-04T08:23:27.471Z,15.24
2022-11-04T08:25:55.180Z,15.73
2022-11-04T08:28:24.184Z,15.92
2022-11-04T08:30:55.590Z,15.92
2022-11-04T08:33:23.420Z,15.90
2022-11-04T08:35:52.433Z,15.80
2022-11-04T08:38:21.215Z,15.71
2022-11-04T08:40:48.959Z,15.64
2022-11-04T08:43:16.734Z,15.49
2022-11-04T08:45:45.823Z,15.46
2022-11-04T08:48:13.555Z,15.37
2022-11-04T08:50:41.283Z,15.35
2022-11-04T08:53:10.923Z,15.30
2022-11-04T08:55:39.234Z,15.28
2022-11-04T08:58:07.205Z,15.24
2022-11-04T09:00:36.444Z,15.27
2022-11-04T09:03:04.589Z,15.37
2022-11-04T09:05:32.382Z,15.45
2022-11-04T09:08:01.104Z,15.46
2022-11-04T09:10:30.147Z,15.57
2022-11-04T09:12:57.853Z,15.52
2022-11-04T09:15:25.547Z,15.58
2022-11-04T09:17:53.213Z,15.79
2022-11-04T09:20:20.923Z,16.10
2022-11-04T09:22:50.394Z,16.13
2022-11-04T09:25:18.171Z,17.01
2022-11-04T09:27:47.219Z,17.22
2022-11-04T09:30:15.222Z,17.35
2022-11-04T09:32:43.073Z,17.41
2022-11-04T09:35:12.979Z,17.41
2022-11-04T09:37:40.812Z,17.39
2022-11-04T09:40:11.236Z,17.40
2022-11-04T09:42:45.026Z,17.33
2022-11-04T09:45:21.554Z,17.32
2022-11-04T09:47:51.528Z,17.39
2022-11-04T09:50:21.848Z,17.60
2022-11-04T09:52:51.674Z,19.67
2022-11-04T09:55:21.964Z,22.33
2022-11-04T09:57:52.451Z,23.65
2022-11-04T10:00:23.174Z,23.51
2022-11-04T10:02:56.008Z,22.92
2022-11-04T10:05:35.036Z,22.30
2022-11-04T10:08:24.833Z,21.67
2022-11-04T10:10:55.337Z,21.22
2022-11-04T10:13:27.257Z,20.97
2022-11-04T10:16:12.042Z,21.05
2022-11-04T10:19:03.445Z,21.58
2022-11-04T10:21:37.177Z,22.07
2022-11-04T10:24:10.778Z,22.70
2022-11-04T10:26:42.817Z,23.28
2022-11-04T10:29:17.613Z,23.89
2022-11-04T10:31:46.763Z,25.34
2022-11-04T10:34:21.362Z,27.68
2022-11-04T10:36:49.207Z,29.38
2022-11-04T10:39:19.380Z,29.41
2022-11-04T10:41:47.586Z,28.17
2022-11-04T10:44:17.750Z,26.74
2022-11-04T10:46:51.103Z,25.63
2022-11-04T10:49:39.715Z,24.92
2022-11-04T10:52:07.513Z,24.39
2022-11-04T10:54:37.369Z,24.02
2022-11-04T10:57:05.356Z,23.75
2022-11-04T10:59:38.660Z,23.47
2022-11-04T11:02:08.117Z,23.33
2022-11-04T11:04:36.763Z,22.94
2022-11-04T11:07:08.529Z,22.44
2022-11-04T11:09:36.654Z,22.14
2022-11-04T11:12:29.550Z,21.75
2022-11-04T11:14:54.433Z,21.34
2022-11-04T11:17:25.036Z,21.00
2022-11-04T11:19:56.694Z,20.59
2022-11-04T11:22:39.837Z,20.31
2022-11-04T11:25:22.733Z,20.02
2022-11-04T11:27:51.069Z,19.78
2022-11-04T11:30:23.289Z,19.65
2022-11-04T11:32:55.809Z,19.42
2022-11-04T11:35:24.774Z,19.29
2022-11-04T11:37:52.465Z,19.15
2022-11-04T11:40:27.644Z,18.95
2022-11-04T11:42:55.725Z,18.78
2022-11-04T11:45:24.409Z,18.62
2022-11-04T11:47:54.974Z,18.43
2022-11-04T11:50:32.548Z,18.43
2022-11-04T11:53:15.773Z,18.38
2022-11-04T11:55:45.475Z,18.24
2022-11-04T12:01:12.031Z,18.21
2022-11-04T12:09:34.689Z,18.37
2022-11-04T12:12:10.060Z,18.46
2022-11-04T12:14:49.379Z,18.53
2022-11-04T12:17:24.660Z,18.55
2022-11-04T12:20:03.872Z,18.52
2022-11-04T12:22:36.800Z,18.09
2022-11-04T12:25:09.882Z,18.56
2022-11-04T12:27:39.830Z,18.49
2022-11-04T12:30:10.344Z,18.49
2022-11-04T12:32:44.446Z,18.49
2022-11-04T12:35:35.415Z,18.64
2022-11-04T12:38:13.082Z,18.62
2022-11-04T12:40:43.451Z,18.67
2022-11-04T12:43:19.527Z,18.70
2022-11-04T12:45:55.267Z,18.78
2022-11-04T12:48:32.293Z,18.82
2022-11-04T12:51:02.833Z,18.88
2022-11-04T12:53:45.216Z,18.84
2022-11-04T12:56:13.291Z,19.00
2022-11-04T12:58:48.843Z,18.99
2022-11-04T13:01:18.355Z,19.04
2022-11-04T13:03:50.352Z,19.11
2022-11-04T13:06:18.958Z,19.21
2022-11-04T13:08:50.875Z,19.30
2022-11-04T13:11:26.782Z,19.43
2022-11-04T13:14:05.199Z,19.52
2022-11-04T13:16:34.811Z,19.61
2022-11-04T13:19:03.052Z,19.78
2022-11-04T13:21:33.245Z,19.88
2022-11-04T13:24:05.045Z,19.92
2022-11-04T13:26:32.765Z,19.97
2022-11-04T13:29:07.521Z,19.96
2022-11-04T13:31:42.560Z,19.90
2022-11-04T13:34:13.672Z,19.64
2022-11-04T13:36:43.026Z,19.73
2022-11-04T13:39:17.703Z,19.63
2022-11-04T13:42:04.661Z,19.53
2022-11-04T13:44:35.583Z,19.52
2022-11-04T13:47:05.200Z,19.41
2022-11-04T13:49:34.296Z,19.34
2022-11-04T13:52:03.136Z,19.31
2022-11-04T13:54:32.973Z,19.23
2022-11-04T13:57:08.259Z,19.14
2022-11-04T13:59:36.168Z,19.07
2022-11-04T14:02:26.784Z,19.04
2022-11-04T14:04:55.685Z,18.94
2022-11-04T14:07:55.113Z,18.86
2022-11-04T14:10:46.727Z,18.77
2022-11-04T14:13:56.938Z,18.76
2022-11-04T14:16:42.580Z,18.67
2022-11-04T14:19:55.767Z,18.65
2022-11-04T14:22:30.509Z,18.60
2022-11-04T14:24:58.591Z,18.56
2022-11-04T14:27:31.604Z,18.53
2022-11-04T14:29:59.416Z,18.49
2022-11-04T14:32:28.447Z,18.44
2022-11-04T14:35:00.269Z,18.36
2022-11-04T14:37:29.762Z,18.26
2022-11-04T14:39:59.002Z,18.31
2022-11-04T14:42:46.697Z,18.32
2022-11-04T14:45:18.116Z,18.02
2022-11-04T14:47:49.071Z,17.96
2022-11-04T14:50:19.245Z,18.28
2022-11-04T14:52:48.360Z,18.12
2022-11-04T14:55:16.944Z,18.19
2022-11-04T14:57:46.523Z,18.06
2022-11-04T15:00:31.710Z,18.17
2022-11-04T15:03:57.524Z,18.14
2022-11-04T15:06:05.884Z,18.04
2022-11-04T15:08:37.638Z,17.82
2022-11-04T15:11:13.909Z,17.88
2022-11-04T15:13:49.890Z,17.84
2022-11-04T15:16:19.337Z,17.74
2022-11-04T15:18:47.268Z,17.76
2022-11-04T15:21:14.948Z,17.48
2022-11-04T15:23:45.018Z,17.68
2022-11-04T15:26:23.872Z,17.65
2022-11-04T15:28:57.403Z,17.63
2022-11-04T15:31:25.905Z,17.56
2022-11-04T15:33:55.058Z,17.60
2022-11-04T15:36:23.790Z,17.57
2022-11-04T15:38:54.457Z,17.53
2022-11-04T15:41:40.736Z,17.50
2022-11-04T15:44:18.309Z,17.46
2022-11-04T15:46:52.881Z,17.41
2022-11-04T15:49:26.079Z,17.41
2022-11-04T15:51:55.606Z,17.37
2022-11-04T15:54:26.823Z,17.32
2022-11-04T15:56:56.195Z,17.29
2022-11-04T15:59:27.216Z,17.24
2022-11-04T16:01:55.293Z,17.23
2022-11-04T16:04:24.869Z,17.19
2022-11-04T16:07:22.205Z,17.19
2022-11-04T16:09:51.020Z,17.13
2022-11-04T16:12:26.895Z,17.10
2022-11-04T16:14:56.348Z,17.04
2022-11-04T16:17:24.282Z,17.06
2022-11-04T16:19:53.511Z,17.01
2022-11-04T16:22:25.020Z,17.00
2022-11-04T16:24:52.991Z,16.99
2022-11-04T16:27:22.066Z,16.96
2022-11-04T16:30:02.620Z,16.94
2022-11-04T16:32:31.864Z,16.89
2022-11-04T16:35:01.871Z,16.85
2022-11-04T16:37:30.233Z,16.80
2022-11-04T16:39:58.155Z,16.77
2022-11-04T16:42:25.870Z,16.75
2022-11-04T16:45:04.111Z,16.68
2022-11-04T16:47:32.177Z,16.62
2022-11-04T16:50:13.500Z,16.51
2022-11-04T16:52:44.163Z,16.43
2022-11-04T16:55:15.939Z,16.34
2022-11-04T16:57:45.021Z,15.93
2022-11-04T17:00:22.680Z,16.24
2022-11-04T17:02:51.260Z,16.26
2022-11-04T17:05:19.142Z,16.19
2022-11-04T17:07:53.697Z,16.27
2022-11-04T17:10:25.403Z,16.21
2022-11-04T17:12:53.151Z,16.23
2022-11-04T17:15:22.498Z,16.19
2022-11-04T17:17:50.663Z,16.14
2022-11-04T17:20:18.650Z,16.08
2022-11-04T17:22:46.924Z,16.04
2022-11-04T17:25:17.247Z,16.03
2022-11-04T17:27:45.038Z,15.94
2022-11-04T17:30:19.132Z,15.89
2022-11-04T17:32:48.164Z,15.85
2022-11-04T17:35:16.520Z,15.81
2022-11-04T17:37:44.337Z,15.80
2022-11-04T17:40:13.814Z,15.79
2022-11-04T17:42:59.374Z,15.38
2022-11-04T17:45:28.267Z,14.01
2022-11-04T17:47:57.482Z,15.78
2022-11-04T17:50:25.332Z,14.63
2022-11-04T17:52:53.085Z,14.99
2022-11-04T17:55:27.155Z,15.21
2022-11-04T17:57:55.512Z,13.82
2022-11-04T18:06:20.423Z,13.99
2022-11-04T18:08:48.444Z,13.91
2022-11-04T18:11:36.825Z,13.74
2022-11-04T18:14:03.885Z,15.54
2022-11-04T18:16:32.338Z,14.22
2022-11-04T18:19:02.350Z,14.88
2022-11-04T18:21:32.635Z,15.41
2022-11-04T18:24:00.706Z,15.22
2022-11-04T18:26:28.931Z,13.64
2022-11-04T18:28:57.147Z,14.78
2022-11-04T18:31:27.008Z,13.61
2022-11-04T18:33:54.897Z,13.71
2022-11-04T18:36:22.804Z,14.65
2022-11-04T18:38:52.476Z,12.59
2022-11-04T18:41:20.615Z,13.89
2022-11-04T18:43:48.711Z,14.50
2022-11-04T18:46:17.390Z,15.13
2022-11-04T18:48:49.124Z,13.81
2022-11-04T18:51:17.419Z,13.99
2022-11-04T18:53:45.436Z,14.54
2022-11-04T18:56:15.544Z,12.91
2022-11-04T18:58:45.079Z,14.31
2022-11-04T19:01:17.295Z,12.71
2022-11-04T19:03:45.418Z,14.95
2022-11-04T19:06:14.683Z,14.71
2022-11-04T19:08:46.622Z,13.29
2022-11-04T19:11:18.124Z,12.86
2022-11-04T19:13:56.014Z,12.55
2022-11-04T19:16:24.241Z,13.09
2022-11-04T19:18:55.299Z,15.15
2022-11-04T19:21:24.310Z,15.19
2022-11-04T19:23:52.214Z,14.64
2022-11-04T19:26:22.711Z,14.07
2022-11-04T19:28:51.267Z,14.72
2022-11-04T19:31:20.682Z,14.71
2022-11-04T19:33:48.691Z,15.30
2022-11-04T19:36:17.773Z,14.00
2022-11-04T19:38:45.984Z,14.60
2022-11-04T19:41:34.536Z,12.87
2022-11-04T19:44:03.838Z,13.88
2022-11-04T19:46:31.876Z,15.05
2022-11-04T19:48:59.919Z,14.18
2022-11-04T19:51:32.007Z,14.35
2022-11-04T19:54:00.492Z,14.84
2022-11-04T19:56:30.689Z,14.18
2022-11-04T19:59:06.183Z,14.00
2022-11-04T20:01:36.840Z,13.13
2022-11-04T20:04:05.308Z,14.06
2022-11-04T20:06:34.104Z,14.18
2022-11-04T20:09:05.734Z,11.77
2022-11-04T20:11:34.445Z,12.27
2022-11-04T20:14:07.561Z,14.65
2022-11-04T20:16:39.542Z,14.66
2022-11-04T20:19:07.434Z,14.68
2022-11-04T20:21:36.151Z,14.58
2022-11-04T20:24:05.100Z,14.67
2022-11-04T20:26:33.208Z,14.64
2022-11-04T20:29:01.139Z,14.63
2022-11-04T20:31:29.900Z,14.59
2022-11-04T20:33:58.986Z,14.48
2022-11-04T20:36:27.638Z,14.44
2022-11-04T20:38:59.088Z,14.44
2022-11-04T20:41:27.099Z,14.41
2022-11-04T20:43:55.821Z,14.39
2022-11-04T20:46:24.502Z,14.38
2022-11-04T20:48:52.358Z,14.42
2022-11-04T20:51:22.719Z,14.27
2022-11-04T20:53:55.777Z,14.47
2022-11-04T20:56:24.462Z,14.53
2022-11-04T20:58:57.693Z,14.58
2022-11-04T21:01:27.982Z,14.29
2022-11-04T21:03:55.921Z,14.63
2022-11-04T21:06:40.216Z,14.70
2022-11-04T21:09:08.845Z,14.74
2022-11-04T21:11:38.930Z,14.74
2022-11-04T21:14:06.934Z,14.75
2022-11-04T21:16:35.544Z,14.82
2022-11-04T21:19:03.359Z,14.85
2022-11-04T21:21:32.465Z,14.90
2022-11-04T21:24:02.779Z,14.91
2022-11-04T21:26:31.326Z,14.94
2022-11-04T21:29:01.327Z,14.94
2022-11-04T21:31:29.272Z,14.93
2022-11-04T21:33:57.008Z,14.98
2022-11-04T21:36:24.649Z,14.95
2022-11-04T21:38:52.926Z,14.96
2022-11-04T21:41:24.331Z,14.96
2022-11-04T21:43:54.748Z,14.96
2022-11-04T21:46:22.560Z,14.98
2022-11-04T21:48:50.212Z,14.99
2022-11-04T21:51:18.870Z,14.91
2022-11-04T21:53:46.559Z,15.02
2022-11-04T21:56:15.114Z,15.03
2022-11-04T21:58:44.308Z,15.06
2022-11-04T22:01:12.936Z,15.10
2022-11-04T22:03:40.725Z,15.14
2022-11-04T22:06:09.597Z,15.16
2022-11-04T22:08:37.529Z,15.17
2022-11-04T22:11:09.054Z,15.20
2022-11-04T22:13:36.731Z,15.19
2022-11-04T22:16:12.685Z,15.26
2022-11-04T22:18:40.317Z,15.22
2022-11-04T22:21:10.677Z,15.27
2022-11-04T22:23:38.626Z,15.31
2022-11-04T22:26:07.238Z,15.33
2022-11-04T22:28:35.244Z,15.02
2022-11-04T22:31:07.540Z,15.33
2022-11-04T22:33:37.663Z,15.34
2022-11-04T22:36:06.009Z,15.35
2022-11-04T22:38:33.813Z,15.34
2022-11-04T22:41:01.837Z,15.20
2022-11-04T22:43:29.527Z,15.32
2022-11-04T22:45:57.620Z,15.30
2022-11-04T22:48:25.364Z,15.28
2022-11-04T22:50:57.196Z,15.23
2022-11-04T22:53:24.948Z,15.21
2022-11-04T22:55:52.702Z,15.16
2022-11-04T22:58:20.424Z,15.10
2022-11-04T23:00:48.167Z,15.02
2022-11-04T23:03:16.674Z,15.04
2022-11-04T23:05:44.669Z,15.00
2022-11-04T23:08:13.698Z,14.95
2022-11-04T23:10:58.799Z,14.89
2022-11-04T23:13:44.107Z,14.80
2022-11-04T23:16:29.941Z,14.66
2022-11-04T23:18:57.680Z,14.60
2022-11-04T23:21:42.886Z,14.52
2022-11-04T23:24:29.341Z,14.42
2022-11-04T23:26:57.331Z,14.35
2022-11-04T23:29:42.267Z,14.32
2022-11-04T23:32:09.932Z,14.26
2022-11-04T23:34:55.228Z,14.20
2022-11-04T23:37:22.857Z,14.14
2022-11-04T23:39:51.975Z,14.08
2022-11-04T23:47:46.581Z,13.93
2022-11-04T23:50:32.059Z,13.79
2022-11-04T23:53:18.081Z,13.74
2022-11-04T23:56:03.790Z,13.71
2022-11-04T23:58:49.157Z,13.64
